sensor_id;sensor_type;location;lat;lon;timestamp;P1;durP1;ratioP1;P2;durP2;ratioP2
13483;SDS011;6814;57.786;12.080;2022-09-09T00:01:37;0.90;;;0.90;;
13483;SDS011;6814;57.786;12.080;2022-09-09T00:04:09;2.20;;;1.00;;
13483;SDS011;6814;57.786;12.080;2022-09-09T00:06:43;2.27;;;1.17;;
13483;SDS011;6814;57.786;12.080;2022-09-09T00:09:10;2.40;;;1.10;;
13483;SDS011;6814;57.786;12.080;2022-09-09T00:11:42;1.00;;;1.00;;
13483;SDS011;6814;57.786;12.080;2022-09-09T00:14:12;1.10;;;1.00;;
13483;SDS011;6814;57.786;12.080;2022-09-09T00:16:39;1.00;;;1.00;;
13483;SDS011;6814;57.786;12.080;2022-09-09T00:19:07;0.90;;;0.90;;
13483;SDS011;6814;57.786;12.080;2022-09-09T00:21:43;1.20;;;1.20;;
13483;SDS011;6814;57.786;12.080;2022-09-09T00:24:16;1.07;;;0.90;;
13483;SDS011;6814;57.786;12.080;2022-09-09T00:26:47;1.37;;;1.20;;
13483;SDS011;6814;57.786;12.080;2022-09-09T00:29:18;2.03;;;1.27;;
13483;SDS011;6814;57.786;12.080;2022-09-09T00:31:47;1.00;;;1.00;;
13483;SDS011;6814;57.786;12.080;2022-09-09T00:34:15;1.33;;;1.23;;
13483;SDS011;6814;57.786;12.080;2022-09-09T00:36:44;1.70;;;1.10;;
13483;SDS011;6814;57.786;12.080;2022-09-09T00:39:15;0.93;;;0.93;;
13483;SDS011;6814;57.786;12.080;2022-09-09T00:41:48;1.47;;;1.07;;
13483;SDS011;6814;57.786;12.080;2022-09-09T00:44:20;1.10;;;1.10;;
13483;SDS011;6814;57.786;12.080;2022-09-09T00:46:54;1.80;;;1.50;;
13483;SDS011;6814;57.786;12.080;2022-09-09T00:49:24;1.20;;;1.20;;
13483;SDS011;6814;57.786;12.080;2022-09-09T00:51:58;1.40;;;1.23;;
13483;SDS011;6814;57.786;12.080;2022-09-09T00:54:31;1.70;;;0.87;;
13483;SDS011;6814;57.786;12.080;2022-09-09T00:57:03;1.40;;;0.83;;
13483;SDS011;6814;57.786;12.080;2022-09-09T00:59:32;2.63;;;1.27;;
13483;SDS011;6814;57.786;12.080;2022-09-09T01:02:01;1.00;;;1.00;;
13483;SDS011;6814;57.786;12.080;2022-09-09T01:04:29;1.00;;;1.00;;
13483;SDS011;6814;57.786;12.080;2022-09-09T01:07:00;2.00;;;1.00;;
13483;SDS011;6814;57.786;12.080;2022-09-09T01:09:30;1.23;;;1.17;;
13483;SDS011;6814;57.786;12.080;2022-09-09T01:12:01;1.83;;;1.30;;
13483;SDS011;6814;57.786;12.080;2022-09-09T01:14:37;1.43;;;1.33;;
13483;SDS011;6814;57.786;12.080;2022-09-09T01:17:08;1.40;;;1.30;;
13483;SDS011;6814;57.786;12.080;2022-09-09T01:19:44;1.57;;;1.47;;
13483;SDS011;6814;57.786;12.080;2022-09-09T01:22:14;2.20;;;1.30;;
13483;SDS011;6814;57.786;12.080;2022-09-09T01:24:50;1.50;;;1.40;;
13483;SDS011;6814;57.786;12.080;2022-09-09T01:27:22;1.67;;;1.37;;
13483;SDS011;6814;57.786;12.080;2022-09-09T01:29:50;1.57;;;1.47;;
13483;SDS011;6814;57.786;12.080;2022-09-09T01:35:01;1.40;;;1.40;;
13483;SDS011;6814;57.786;12.080;2022-09-09T01:37:27;1.30;;;1.30;;
13483;SDS011;6814;57.786;12.080;2022-09-09T01:39:54;1.50;;;1.40;;
13483;SDS011;6814;57.786;12.080;2022-09-09T01:42:22;2.63;;;1.40;;
13483;SDS011;6814;57.786;12.080;2022-09-09T01:44:48;2.10;;;1.40;;
13483;SDS011;6814;57.786;12.080;2022-09-09T01:47:14;2.80;;;1.60;;
13483;SDS011;6814;57.786;12.080;2022-09-09T01:49:41;2.13;;;1.40;;
13483;SDS011;6814;57.786;12.080;2022-09-09T01:52:07;1.83;;;1.50;;
13483;SDS011;6814;57.786;12.080;2022-09-09T01:54:34;1.77;;;1.67;;
13483;SDS011;6814;57.786;12.080;2022-09-09T01:57:02;1.70;;;1.57;;
13483;SDS011;6814;57.786;12.080;2022-09-09T01:59:42;1.80;;;1.70;;
13483;SDS011;6814;57.786;12.080;2022-09-09T02:02:13;1.60;;;1.50;;
13483;SDS011;6814;57.786;12.080;2022-09-09T02:04:42;1.43;;;1.43;;
13483;SDS011;6814;57.786;12.080;2022-09-09T02:07:14;1.70;;;1.60;;
13483;SDS011;6814;57.786;12.080;2022-09-09T02:09:42;1.70;;;1.60;;
13483;SDS011;6814;57.786;12.080;2022-09-09T02:12:13;1.93;;;1.50;;
13483;SDS011;6814;57.786;12.080;2022-09-09T02:14:42;4.13;;;1.50;;
13483;SDS011;6814;57.786;12.080;2022-09-09T02:17:13;3.03;;;1.50;;
13483;SDS011;6814;57.786;12.080;2022-09-09T02:19:42;1.70;;;1.60;;
13483;SDS011;6814;57.786;12.080;2022-09-09T02:22:14;1.50;;;1.40;;
13483;SDS011;6814;57.786;12.080;2022-09-09T02:24:42;1.70;;;1.60;;
13483;SDS011;6814;57.786;12.080;2022-09-09T02:27:11;2.13;;;1.63;;
13483;SDS011;6814;57.786;12.080;2022-09-09T02:29:39;2.33;;;1.63;;
13483;SDS011;6814;57.786;12.080;2022-09-09T02:32:09;1.67;;;1.57;;
13483;SDS011;6814;57.786;12.080;2022-09-09T02:34:37;4.17;;;1.83;;
13483;SDS011;6814;57.786;12.080;2022-09-09T02:37:06;1.40;;;1.40;;
13483;SDS011;6814;57.786;12.080;2022-09-09T02:39:34;2.17;;;1.60;;
13483;SDS011;6814;57.786;12.080;2022-09-09T02:42:00;2.90;;;1.70;;
13483;SDS011;6814;57.786;12.080;2022-09-09T02:44:28;2.57;;;1.90;;
13483;SDS011;6814;57.786;12.080;2022-09-09T02:47:03;2.10;;;1.80;;
13483;SDS011;6814;57.786;12.080;2022-09-09T02:49:35;1.73;;;1.63;;
13483;SDS011;6814;57.786;12.080;2022-09-09T02:52:06;1.67;;;1.57;;
13483;SDS011;6814;57.786;12.080;2022-09-09T02:54:34;3.70;;;1.70;;
13483;SDS011;6814;57.786;12.080;2022-09-09T02:57:01;1.67;;;1.60;;
13483;SDS011;6814;57.786;12.080;2022-09-09T02:59:30;1.50;;;1.40;;
13483;SDS011;6814;57.786;12.080;2022-09-09T03:01:56;1.60;;;1.50;;
13483;SDS011;6814;57.786;12.080;2022-09-09T03:04:23;3.50;;;1.87;;
13483;SDS011;6814;57.786;12.080;2022-09-09T03:06:51;1.93;;;1.83;;
13483;SDS011;6814;57.786;12.080;2022-09-09T03:09:17;1.90;;;1.80;;
13483;SDS011;6814;57.786;12.080;2022-09-09T03:11:44;2.80;;;2.00;;
13483;SDS011;6814;57.786;12.080;2022-09-09T03:14:10;2.17;;;1.80;;
13483;SDS011;6814;57.786;12.080;2022-09-09T03:16:37;2.80;;;2.00;;
13483;SDS011;6814;57.786;12.080;2022-09-09T03:19:03;2.83;;;1.50;;
13483;SDS011;6814;57.786;12.080;2022-09-09T03:21:31;1.97;;;1.83;;
13483;SDS011;6814;57.786;12.080;2022-09-09T03:23:59;1.90;;;1.80;;
13483;SDS011;6814;57.786;12.080;2022-09-09T03:26:28;1.80;;;1.70;;
13483;SDS011;6814;57.786;12.080;2022-09-09T03:28:55;2.10;;;1.70;;
13483;SDS011;6814;57.786;12.080;2022-09-09T03:31:21;1.73;;;1.63;;
13483;SDS011;6814;57.786;12.080;2022-09-09T03:33:47;1.97;;;1.87;;
13483;SDS011;6814;57.786;12.080;2022-09-09T03:36:14;2.00;;;1.90;;
13483;SDS011;6814;57.786;12.080;2022-09-09T03:38:40;2.90;;;2.17;;
13483;SDS011;6814;57.786;12.080;2022-09-09T03:41:08;1.70;;;1.60;;
13483;SDS011;6814;57.786;12.080;2022-09-09T03:43:34;2.33;;;2.10;;
13483;SDS011;6814;57.786;12.080;2022-09-09T03:46:02;2.60;;;1.90;;
13483;SDS011;6814;57.786;12.080;2022-09-09T03:48:28;1.80;;;1.70;;
13483;SDS011;6814;57.786;12.080;2022-09-09T03:50:55;2.60;;;1.70;;
13483;SDS011;6814;57.786;12.080;2022-09-09T03:53:23;1.73;;;1.63;;
13483;SDS011;6814;57.786;12.080;2022-09-09T03:55:50;2.20;;;2.00;;
13483;SDS011;6814;57.786;12.080;2022-09-09T03:58:21;1.80;;;1.70;;
13483;SDS011;6814;57.786;12.080;2022-09-09T04:00:58;1.70;;;1.60;;
13483;SDS011;6814;57.786;12.080;2022-09-09T04:03:26;2.33;;;1.90;;
13483;SDS011;6814;57.786;12.080;2022-09-09T04:05:53;2.40;;;1.80;;
13483;SDS011;6814;57.786;12.080;2022-09-09T04:08:20;2.77;;;2.20;;
13483;SDS011;6814;57.786;12.080;2022-09-09T04:10:46;3.20;;;2.10;;
13483;SDS011;6814;57.786;12.080;2022-09-09T04:13:13;2.20;;;1.73;;
13483;SDS011;6814;57.786;12.080;2022-09-09T04:15:44;1.63;;;1.53;;
13483;SDS011;6814;57.786;12.080;2022-09-09T04:18:11;2.20;;;1.80;;
13483;SDS011;6814;57.786;12.080;2022-09-09T04:20:38;1.70;;;1.60;;
13483;SDS011;6814;57.786;12.080;2022-09-09T04:23:05;3.80;;;1.60;;
13483;SDS011;6814;57.786;12.080;2022-09-09T04:25:31;4.27;;;2.20;;
13483;SDS011;6814;57.786;12.080;2022-09-09T04:27:59;2.17;;;1.60;;
13483;SDS011;6814;57.786;12.080;2022-09-09T04:30:25;3.27;;;1.80;;
13483;SDS011;6814;57.786;12.080;2022-09-09T04:32:54;1.80;;;1.70;;
13483;SDS011;6814;57.786;12.080;2022-09-09T04:35:20;1.73;;;1.63;;
13483;SDS011;6814;57.786;12.080;2022-09-09T04:37:48;1.70;;;1.60;;
13483;SDS011;6814;57.786;12.080;2022-09-09T04:40:16;1.87;;;1.67;;
13483;SDS011;6814;57.786;12.080;2022-09-09T04:42:42;4.63;;;1.90;;
13483;SDS011;6814;57.786;12.080;2022-09-09T04:45:10;1.90;;;1.70;;
13483;SDS011;6814;57.786;12.080;2022-09-09T04:47:38;1.90;;;1.80;;
13483;SDS011;6814;57.786;12.080;2022-09-09T04:50:08;3.50;;;1.87;;
13483;SDS011;6814;57.786;12.080;2022-09-09T04:52:38;2.27;;;1.83;;
13483;SDS011;6814;57.786;12.080;2022-09-09T04:55:08;2.07;;;1.83;;
13483;SDS011;6814;57.786;12.080;2022-09-09T04:57:38;1.80;;;1.50;;
13483;SDS011;6814;57.786;12.080;2022-09-09T05:00:06;2.10;;;1.90;;
13483;SDS011;6814;57.786;12.080;2022-09-09T05:02:36;1.70;;;1.60;;
13483;SDS011;6814;57.786;12.080;2022-09-09T05:05:20;2.27;;;1.70;;
13483;SDS011;6814;57.786;12.080;2022-09-09T05:07:59;2.47;;;1.60;;
13483;SDS011;6814;57.786;12.080;2022-09-09T05:10:30;1.80;;;1.50;;
13483;SDS011;6814;57.786;12.080;2022-09-09T05:12:58;2.13;;;1.57;;
13483;SDS011;6814;57.786;12.080;2022-09-09T05:15:29;2.33;;;1.70;;
13483;SDS011;6814;57.786;12.080;2022-09-09T05:17:56;3.40;;;1.80;;
13483;SDS011;6814;57.786;12.080;2022-09-09T05:20:25;2.40;;;1.43;;
13483;SDS011;6814;57.786;12.080;2022-09-09T05:22:52;1.50;;;1.40;;
13483;SDS011;6814;57.786;12.080;2022-09-09T05:25:19;2.50;;;1.70;;
13483;SDS011;6814;57.786;12.080;2022-09-09T05:27:47;1.90;;;1.80;;
13483;SDS011;6814;57.786;12.080;2022-09-09T05:30:18;2.13;;;1.70;;
13483;SDS011;6814;57.786;12.080;2022-09-09T05:32:45;1.73;;;1.60;;
13483;SDS011;6814;57.786;12.080;2022-09-09T05:35:12;2.43;;;1.47;;
13483;SDS011;6814;57.786;12.080;2022-09-09T05:37:40;2.00;;;1.57;;
13483;SDS011;6814;57.786;12.080;2022-09-09T05:40:07;1.50;;;1.40;;
13483;SDS011;6814;57.786;12.080;2022-09-09T05:42:34;5.90;;;1.60;;
13483;SDS011;6814;57.786;12.080;2022-09-09T05:45:00;2.00;;;1.80;;
13483;SDS011;6814;57.786;12.080;2022-09-09T05:47:27;2.23;;;1.70;;
13483;SDS011;6814;57.786;12.080;2022-09-09T05:49:54;3.17;;;1.93;;
13483;SDS011;6814;57.786;12.080;2022-09-09T05:52:21;2.33;;;1.83;;
13483;SDS011;6814;57.786;12.080;2022-09-09T05:54:49;2.53;;;2.00;;
13483;SDS011;6814;57.786;12.080;2022-09-09T05:57:15;2.27;;;1.70;;
13483;SDS011;6814;57.786;12.080;2022-09-09T05:59:42;2.43;;;1.97;;
13483;SDS011;6814;57.786;12.080;2022-09-09T06:02:08;2.80;;;2.03;;
13483;SDS011;6814;57.786;12.080;2022-09-09T06:04:35;3.77;;;1.90;;
13483;SDS011;6814;57.786;12.080;2022-09-09T06:07:01;2.37;;;1.70;;
13483;SDS011;6814;57.786;12.080;2022-09-09T06:09:28;2.97;;;1.80;;
13483;SDS011;6814;57.786;12.080;2022-09-09T06:11:57;3.10;;;2.17;;
13483;SDS011;6814;57.786;12.080;2022-09-09T06:14:23;2.97;;;1.70;;
13483;SDS011;6814;57.786;12.080;2022-09-09T06:16:50;2.20;;;1.70;;
13483;SDS011;6814;57.786;12.080;2022-09-09T06:19:17;6.23;;;1.90;;
13483;SDS011;6814;57.786;12.080;2022-09-09T06:21:43;2.27;;;2.07;;
13483;SDS011;6814;57.786;12.080;2022-09-09T06:24:10;2.87;;;1.77;;
13483;SDS011;6814;57.786;12.080;2022-09-09T06:26:39;2.10;;;1.90;;
13483;SDS011;6814;57.786;12.080;2022-09-09T06:29:10;1.80;;;1.70;;
13483;SDS011;6814;57.786;12.080;2022-09-09T06:31:37;1.70;;;1.60;;
13483;SDS011;6814;57.786;12.080;2022-09-09T06:34:04;2.40;;;1.73;;
13483;SDS011;6814;57.786;12.080;2022-09-09T06:36:32;2.50;;;1.60;;
13483;SDS011;6814;57.786;12.080;2022-09-09T06:38:58;6.77;;;1.90;;
13483;SDS011;6814;57.786;12.080;2022-09-09T06:41:26;2.30;;;1.90;;
13483;SDS011;6814;57.786;12.080;2022-09-09T06:43:52;4.43;;;1.60;;
13483;SDS011;6814;57.786;12.080;2022-09-09T06:46:22;9.73;;;2.63;;
13483;SDS011;6814;57.786;12.080;2022-09-09T06:48:48;7.90;;;1.70;;
13483;SDS011;6814;57.786;12.080;2022-09-09T06:51:15;3.37;;;1.87;;
13483;SDS011;6814;57.786;12.080;2022-09-09T06:53:43;5.40;;;1.80;;
13483;SDS011;6814;57.786;12.080;2022-09-09T06:56:20;3.33;;;1.60;;
13483;SDS011;6814;57.786;12.080;2022-09-09T06:58:46;3.23;;;2.00;;
13483;SDS011;6814;57.786;12.080;2022-09-09T07:01:14;2.43;;;1.80;;
13483;SDS011;6814;57.786;12.080;2022-09-09T07:03:44;2.40;;;1.70;;
13483;SDS011;6814;57.786;12.080;2022-09-09T07:06:12;6.40;;;2.03;;
13483;SDS011;6814;57.786;12.080;2022-09-09T07:08:40;5.13;;;1.77;;
13483;SDS011;6814;57.786;12.080;2022-09-09T07:11:07;4.80;;;1.70;;
13483;SDS011;6814;57.786;12.080;2022-09-09T07:13:34;2.53;;;1.60;;
13483;SDS011;6814;57.786;12.080;2022-09-09T07:16:03;1.50;;;1.50;;
13483;SDS011;6814;57.786;12.080;2022-09-09T07:18:29;2.20;;;2.00;;
13483;SDS011;6814;57.786;12.080;2022-09-09T07:20:57;5.83;;;1.70;;
13483;SDS011;6814;57.786;12.080;2022-09-09T07:23:24;2.63;;;2.10;;
13483;SDS011;6814;57.786;12.080;2022-09-09T07:25:51;3.90;;;2.20;;
13483;SDS011;6814;57.786;12.080;2022-09-09T07:28:17;4.53;;;1.70;;
13483;SDS011;6814;57.786;12.080;2022-09-09T07:30:52;5.00;;;2.20;;
13483;SDS011;6814;57.786;12.080;2022-09-09T07:33:18;5.33;;;1.80;;
13483;SDS011;6814;57.786;12.080;2022-09-09T07:35:47;4.00;;;1.77;;
13483;SDS011;6814;57.786;12.080;2022-09-09T07:38:15;4.77;;;2.10;;
13483;SDS011;6814;57.786;12.080;2022-09-09T07:40:42;3.93;;;1.90;;
13483;SDS011;6814;57.786;12.080;2022-09-09T07:43:08;3.77;;;2.20;;
13483;SDS011;6814;57.786;12.080;2022-09-09T07:45:35;2.50;;;1.63;;
13483;SDS011;6814;57.786;12.080;2022-09-09T07:48:02;2.40;;;1.67;;
13483;SDS011;6814;57.786;12.080;2022-09-09T07:50:28;2.50;;;1.80;;
13483;SDS011;6814;57.786;12.080;2022-09-09T07:52:55;2.40;;;1.80;;
13483;SDS011;6814;57.786;12.080;2022-09-09T07:55:23;6.67;;;2.10;;
13483;SDS011;6814;57.786;12.080;2022-09-09T07:57:51;4.83;;;1.80;;
13483;SDS011;6814;57.786;12.080;2022-09-09T08:00:17;2.63;;;1.87;;
13483;SDS011;6814;57.786;12.080;2022-09-09T08:02:44;3.40;;;1.77;;
13483;SDS011;6814;57.786;12.080;2022-09-09T08:05:11;4.27;;;1.90;;
13483;SDS011;6814;57.786;12.080;2022-09-09T08:07:38;4.83;;;1.77;;
13483;SDS011;6814;57.786;12.080;2022-09-09T08:10:04;3.47;;;1.80;;
13483;SDS011;6814;57.786;12.080;2022-09-09T08:12:32;3.33;;;1.70;;
13483;SDS011;6814;57.786;12.080;2022-09-09T08:14:59;3.43;;;1.70;;
13483;SDS011;6814;57.786;12.080;2022-09-09T08:17:25;2.73;;;1.80;;
13483;SDS011;6814;57.786;12.080;2022-09-09T08:19:51;3.37;;;2.03;;
13483;SDS011;6814;57.786;12.080;2022-09-09T08:22:19;2.93;;;2.13;;
13483;SDS011;6814;57.786;12.080;2022-09-09T08:24:47;2.83;;;1.27;;
13483;SDS011;6814;57.786;12.080;2022-09-09T08:27:13;4.83;;;1.90;;
13483;SDS011;6814;57.786;12.080;2022-09-09T08:29:41;3.87;;;1.57;;
13483;SDS011;6814;57.786;12.080;2022-09-09T08:32:07;4.63;;;2.20;;
13483;SDS011;6814;57.786;12.080;2022-09-09T08:34:34;3.13;;;1.60;;
13483;SDS011;6814;57.786;12.080;2022-09-09T08:37:00;2.13;;;1.50;;
13483;SDS011;6814;57.786;12.080;2022-09-09T08:39:27;3.20;;;1.93;;
13483;SDS011;6814;57.786;12.080;2022-09-09T08:41:59;3.20;;;1.70;;
13483;SDS011;6814;57.786;12.080;2022-09-09T08:44:32;4.53;;;1.67;;
13483;SDS011;6814;57.786;12.080;2022-09-09T08:47:05;2.50;;;1.80;;
13483;SDS011;6814;57.786;12.080;2022-09-09T08:49:39;3.80;;;1.60;;
13483;SDS011;6814;57.786;12.080;2022-09-09T08:52:08;5.17;;;1.87;;
13483;SDS011;6814;57.786;12.080;2022-09-09T08:54:41;2.73;;;1.50;;
13483;SDS011;6814;57.786;12.080;2022-09-09T08:57:08;2.23;;;1.63;;
13483;SDS011;6814;57.786;12.080;2022-09-09T08:59:38;3.43;;;1.50;;
13483;SDS011;6814;57.786;12.080;2022-09-09T09:02:07;3.10;;;1.67;;
13483;SDS011;6814;57.786;12.080;2022-09-09T09:04:53;5.00;;;1.77;;
13483;SDS011;6814;57.786;12.080;2022-09-09T09:07:24;4.27;;;1.87;;
13483;SDS011;6814;57.786;12.080;2022-09-09T09:09:56;2.00;;;1.40;;
13483;SDS011;6814;57.786;12.080;2022-09-09T09:12:25;4.47;;;1.50;;
13483;SDS011;6814;57.786;12.080;2022-09-09T09:14:54;5.70;;;1.77;;
13483;SDS011;6814;57.786;12.080;2022-09-09T09:17:24;2.40;;;1.83;;
13483;SDS011;6814;57.786;12.080;2022-09-09T09:19:52;2.80;;;1.70;;
13483;SDS011;6814;57.786;12.080;2022-09-09T09:22:19;2.70;;;1.80;;
13483;SDS011;6814;57.786;12.080;2022-09-09T09:24:50;3.83;;;1.60;;
13483;SDS011;6814;57.786;12.080;2022-09-09T09:27:21;2.77;;;1.70;;
13483;SDS011;6814;57.786;12.080;2022-09-09T09:29:53;5.83;;;2.03;;
13483;SDS011;6814;57.786;12.080;2022-09-09T09:32:21;4.53;;;1.70;;
13483;SDS011;6814;57.786;12.080;2022-09-09T09:34:50;1.93;;;1.63;;
13483;SDS011;6814;57.786;12.080;2022-09-09T09:37:21;1.83;;;1.40;;
13483;SDS011;6814;57.786;12.080;2022-09-09T09:39:48;4.13;;;1.77;;
13483;SDS011;6814;57.786;12.080;2022-09-09T09:42:16;3.87;;;1.80;;
13483;SDS011;6814;57.786;12.080;2022-09-09T09:44:43;1.53;;;1.43;;
13483;SDS011;6814;57.786;12.080;2022-09-09T09:47:12;3.37;;;1.80;;
13483;SDS011;6814;57.786;12.080;2022-09-09T09:49:39;3.00;;;1.70;;
13483;SDS011;6814;57.786;12.080;2022-09-09T09:52:12;2.13;;;1.70;;
13483;SDS011;6814;57.786;12.080;2022-09-09T09:54:41;5.50;;;1.80;;
13483;SDS011;6814;57.786;12.080;2022-09-09T09:57:08;3.67;;;1.77;;
13483;SDS011;6814;57.786;12.080;2022-09-09T09:59:35;3.40;;;1.50;;
13483;SDS011;6814;57.786;12.080;2022-09-09T10:05:00;6.27;;;2.07;;
13483;SDS011;6814;57.786;12.080;2022-09-09T10:07:28;3.87;;;2.00;;
13483;SDS011;6814;57.786;12.080;2022-09-09T10:09:55;3.53;;;1.60;;
13483;SDS011;6814;57.786;12.080;2022-09-09T10:12:24;2.90;;;1.97;;
13483;SDS011;6814;57.786;12.080;2022-09-09T10:14:54;3.83;;;1.90;;
13483;SDS011;6814;57.786;12.080;2022-09-09T10:17:26;3.27;;;2.00;;
13483;SDS011;6814;57.786;12.080;2022-09-09T10:19:59;2.57;;;1.90;;
13483;SDS011;6814;57.786;12.080;2022-09-09T10:22:33;2.60;;;1.90;;
13483;SDS011;6814;57.786;12.080;2022-09-09T10:25:05;2.40;;;1.93;;
13483;SDS011;6814;57.786;12.080;2022-09-09T10:27:42;4.67;;;2.00;;
13483;SDS011;6814;57.786;12.080;2022-09-09T10:30:13;2.33;;;1.77;;
13483;SDS011;6814;57.786;12.080;2022-09-09T10:32:45;3.00;;;1.80;;
13483;SDS011;6814;57.786;12.080;2022-09-09T10:35:14;3.87;;;2.20;;
13483;SDS011;6814;57.786;12.080;2022-09-09T10:37:58;4.80;;;2.10;;
13483;SDS011;6814;57.786;12.080;2022-09-09T10:40:30;5.03;;;2.03;;
13483;SDS011;6814;57.786;12.080;2022-09-09T10:43:00;3.40;;;2.33;;
13483;SDS011;6814;57.786;12.080;2022-09-09T10:45:31;3.90;;;1.93;;
13483;SDS011;6814;57.786;12.080;2022-09-09T10:48:18;6.27;;;2.07;;
13483;SDS011;6814;57.786;12.080;2022-09-09T10:50:50;4.53;;;2.47;;
13483;SDS011;6814;57.786;12.080;2022-09-09T10:53:24;2.50;;;2.20;;
13483;SDS011;6814;57.786;12.080;2022-09-09T10:55:53;4.10;;;2.30;;
13483;SDS011;6814;57.786;12.080;2022-09-09T10:58:23;5.47;;;2.20;;
13483;SDS011;6814;57.786;12.080;2022-09-09T11:00:52;2.73;;;2.00;;
13483;SDS011;6814;57.786;12.080;2022-09-09T11:03:21;3.80;;;2.17;;
13483;SDS011;6814;57.786;12.080;2022-09-09T11:05:49;3.40;;;2.27;;
13483;SDS011;6814;57.786;12.080;2022-09-09T11:08:17;3.67;;;2.70;;
13483;SDS011;6814;57.786;12.080;2022-09-09T11:10:46;3.27;;;2.43;;
13483;SDS011;6814;57.786;12.080;2022-09-09T11:13:19;4.67;;;2.70;;
13483;SDS011;6814;57.786;12.080;2022-09-09T11:15:49;2.50;;;2.30;;
13483;SDS011;6814;57.786;12.080;2022-09-09T11:18:17;2.60;;;2.40;;
13483;SDS011;6814;57.786;12.080;2022-09-09T11:20:45;4.80;;;2.43;;
13483;SDS011;6814;57.786;12.080;2022-09-09T11:23:13;4.23;;;2.40;;
13483;SDS011;6814;57.786;12.080;2022-09-09T11:25:41;5.30;;;2.50;;
13483;SDS011;6814;57.786;12.080;2022-09-09T11:28:20;4.53;;;2.40;;
13483;SDS011;6814;57.786;12.080;2022-09-09T11:30:54;3.87;;;2.67;;
13483;SDS011;6814;57.786;12.080;2022-09-09T11:33:29;4.47;;;2.97;;
13483;SDS011;6814;57.786;12.080;2022-09-09T11:36:04;4.13;;;2.67;;
13483;SDS011;6814;57.786;12.080;2022-09-09T11:38:36;2.80;;;2.40;;
13483;SDS011;6814;57.786;12.080;2022-09-09T11:41:07;3.77;;;2.73;;
13483;SDS011;6814;57.786;12.080;2022-09-09T11:43:39;4.20;;;2.83;;
13483;SDS011;6814;57.786;12.080;2022-09-09T11:46:06;5.87;;;2.40;;
13483;SDS011;6814;57.786;12.080;2022-09-09T11:48:33;3.97;;;2.80;;
13483;SDS011;6814;57.786;12.080;2022-09-09T11:51:01;3.77;;;2.73;;
13483;SDS011;6814;57.786;12.080;2022-09-09T11:53:28;3.83;;;2.70;;
13483;SDS011;6814;57.786;12.080;2022-09-09T11:58:44;4.60;;;2.70;;
13483;SDS011;6814;57.786;12.080;2022-09-09T12:01:27;3.73;;;2.67;;
13483;SDS011;6814;57.786;12.080;2022-09-09T12:03:57;4.13;;;2.80;;
13483;SDS011;6814;57.786;12.080;2022-09-09T12:06:27;4.00;;;2.70;;
13483;SDS011;6814;57.786;12.080;2022-09-09T12:08:56;5.83;;;2.80;;
13483;SDS011;6814;57.786;12.080;2022-09-09T12:11:25;4.10;;;3.03;;
13483;SDS011;6814;57.786;12.080;2022-09-09T12:13:54;3.97;;;2.83;;
13483;SDS011;6814;57.786;12.080;2022-09-09T12:16:28;4.47;;;2.90;;
13483;SDS011;6814;57.786;12.080;2022-09-09T12:19:02;4.13;;;2.80;;
13483;SDS011;6814;57.786;12.080;2022-09-09T12:21:31;3.37;;;3.00;;
13483;SDS011;6814;57.786;12.080;2022-09-09T12:24:01;3.00;;;2.67;;
13483;SDS011;6814;57.786;12.080;2022-09-09T12:26:32;3.40;;;3.10;;
13483;SDS011;6814;57.786;12.080;2022-09-09T12:29:08;5.03;;;2.90;;
13483;SDS011;6814;57.786;12.080;2022-09-09T12:31:39;3.90;;;2.90;;
13483;SDS011;6814;57.786;12.080;2022-09-09T12:34:10;8.13;;;2.87;;
13483;SDS011;6814;57.786;12.080;2022-09-09T12:36:37;3.27;;;2.97;;
13483;SDS011;6814;57.786;12.080;2022-09-09T12:39:09;3.87;;;3.10;;
13483;SDS011;6814;57.786;12.080;2022-09-09T12:41:36;5.37;;;3.23;;
13483;SDS011;6814;57.786;12.080;2022-09-09T12:44:03;3.97;;;3.07;;
13483;SDS011;6814;57.786;12.080;2022-09-09T12:46:33;3.03;;;2.60;;
13483;SDS011;6814;57.786;12.080;2022-09-09T12:49:01;4.10;;;2.77;;
13483;SDS011;6814;57.786;12.080;2022-09-09T12:51:28;4.03;;;2.80;;
13483;SDS011;6814;57.786;12.080;2022-09-09T12:53:56;4.50;;;3.10;;
13483;SDS011;6814;57.786;12.080;2022-09-09T12:56:23;3.43;;;2.80;;
13483;SDS011;6814;57.786;12.080;2022-09-09T12:58:52;4.53;;;3.33;;
13483;SDS011;6814;57.786;12.080;2022-09-09T13:01:21;5.03;;;3.20;;
13483;SDS011;6814;57.786;12.080;2022-09-09T13:03:49;5.10;;;3.03;;
13483;SDS011;6814;57.786;12.080;2022-09-09T13:06:18;7.73;;;3.03;;
13483;SDS011;6814;57.786;12.080;2022-09-09T13:08:47;5.73;;;3.07;;
13483;SDS011;6814;57.786;12.080;2022-09-09T13:11:15;3.93;;;2.90;;
13483;SDS011;6814;57.786;12.080;2022-09-09T13:13:43;3.60;;;2.90;;
13483;SDS011;6814;57.786;12.080;2022-09-09T13:16:18;7.60;;;4.40;;
13483;SDS011;6814;57.786;12.080;2022-09-09T13:18:45;5.80;;;4.00;;
13483;SDS011;6814;57.786;12.080;2022-09-09T13:21:13;3.77;;;3.40;;
13483;SDS011;6814;57.786;12.080;2022-09-09T13:23:40;3.73;;;3.37;;
13483;SDS011;6814;57.786;12.080;2022-09-09T13:26:20;3.37;;;3.07;;
13483;SDS011;6814;57.786;12.080;2022-09-09T13:28:47;3.57;;;3.27;;
13483;SDS011;6814;57.786;12.080;2022-09-09T13:31:19;3.27;;;2.90;;
13483;SDS011;6814;57.786;12.080;2022-09-09T13:33:46;5.73;;;3.33;;
13483;SDS011;6814;57.786;12.080;2022-09-09T13:36:13;6.10;;;3.33;;
13483;SDS011;6814;57.786;12.080;2022-09-09T13:38:40;4.80;;;3.13;;
13483;SDS011;6814;57.786;12.080;2022-09-09T13:41:19;4.13;;;3.27;;
13483;SDS011;6814;57.786;12.080;2022-09-09T13:43:46;5.13;;;3.60;;
13483;SDS011;6814;57.786;12.080;2022-09-09T13:46:25;4.87;;;3.40;;
13483;SDS011;6814;57.786;12.080;2022-09-09T13:48:55;3.50;;;3.23;;
13483;SDS011;6814;57.786;12.080;2022-09-09T13:51:28;4.50;;;2.97;;
13483;SDS011;6814;57.786;12.080;2022-09-09T13:53:55;3.57;;;3.23;;
13483;SDS011;6814;57.786;12.080;2022-09-09T13:56:22;4.73;;;3.30;;
13483;SDS011;6814;57.786;12.080;2022-09-09T13:58:49;5.53;;;3.70;;
13483;SDS011;6814;57.786;12.080;2022-09-09T14:01:15;6.30;;;3.60;;
13483;SDS011;6814;57.786;12.080;2022-09-09T14:03:42;5.83;;;3.90;;
13483;SDS011;6814;57.786;12.080;2022-09-09T14:06:08;4.80;;;3.60;;
13483;SDS011;6814;57.786;12.080;2022-09-09T14:08:36;4.10;;;3.57;;
13483;SDS011;6814;57.786;12.080;2022-09-09T14:11:03;4.40;;;3.63;;
13483;SDS011;6814;57.786;12.080;2022-09-09T14:13:30;4.00;;;3.60;;
13483;SDS011;6814;57.786;12.080;2022-09-09T14:15:56;4.97;;;4.30;;
13483;SDS011;6814;57.786;12.080;2022-09-09T14:18:23;5.30;;;4.17;;
13483;SDS011;6814;57.786;12.080;2022-09-09T14:20:50;5.40;;;3.83;;
13483;SDS011;6814;57.786;12.080;2022-09-09T14:23:16;5.37;;;4.57;;
13483;SDS011;6814;57.786;12.080;2022-09-09T14:25:45;6.50;;;4.43;;
13483;SDS011;6814;57.786;12.080;2022-09-09T14:28:12;5.83;;;4.13;;
13483;SDS011;6814;57.786;12.080;2022-09-09T14:30:39;5.40;;;4.00;;
13483;SDS011;6814;57.786;12.080;2022-09-09T14:33:06;7.17;;;4.23;;
13483;SDS011;6814;57.786;12.080;2022-09-09T14:35:33;4.20;;;3.80;;
13483;SDS011;6814;57.786;12.080;2022-09-09T14:37:59;5.03;;;3.93;;
13483;SDS011;6814;57.786;12.080;2022-09-09T14:40:27;4.60;;;4.20;;
13483;SDS011;6814;57.786;12.080;2022-09-09T14:42:55;6.40;;;4.57;;
13483;SDS011;6814;57.786;12.080;2022-09-09T14:45:21;4.60;;;3.90;;
13483;SDS011;6814;57.786;12.080;2022-09-09T14:47:49;4.37;;;3.97;;
13483;SDS011;6814;57.786;12.080;2022-09-09T14:50:16;4.37;;;3.80;;
13483;SDS011;6814;57.786;12.080;2022-09-09T14:52:42;5.00;;;4.10;;
13483;SDS011;6814;57.786;12.080;2022-09-09T14:55:09;7.03;;;4.10;;
13483;SDS011;6814;57.786;12.080;2022-09-09T14:57:36;4.30;;;3.90;;
13483;SDS011;6814;57.786;12.080;2022-09-09T15:00:06;4.77;;;3.93;;
13483;SDS011;6814;57.786;12.080;2022-09-09T15:02:33;4.80;;;4.00;;
13483;SDS011;6814;57.786;12.080;2022-09-09T15:05:00;6.37;;;4.40;;
13483;SDS011;6814;57.786;12.080;2022-09-09T15:07:26;4.57;;;4.07;;